createdAt,value
2022-09-02T00:01:38.334Z,59.86
2022-09-02T00:04:15.758Z,60.01
2022-09-02T00:06:50.963Z,59.57
2022-09-02T00:09:26.238Z,59.67
2022-09-02T00:11:59.274Z,59.31
2022-09-02T00:14:36.863Z,59.46
2022-09-02T00:17:10.110Z,59.86
2022-09-02T00:19:43.165Z,60.01
2022-09-02T00:22:16.653Z,60.07
2022-09-02T00:24:49.753Z,59.86
2022-09-02T00:27:22.730Z,59.75
2022-09-02T00:29:55.592Z,60.04
2022-09-02T00:32:28.886Z,59.82
2022-09-02T00:35:02.331Z,59.72
2022-09-02T00:37:35.759Z,59.79
2022-09-02T00:40:12.086Z,59.86
2022-09-02T00:42:45.625Z,59.80
2022-09-02T00:45:19.598Z,59.56
2022-09-02T00:47:53.334Z,59.52
2022-09-02T00:50:31.096Z,59.62
2022-09-02T00:53:11.237Z,59.80
2022-09-02T00:55:48.105Z,59.80
2022-09-02T00:58:26.099Z,59.76
2022-09-02T01:01:00.194Z,59.99
2022-09-02T01:03:34.747Z,60.29
2022-09-02T01:06:08.139Z,60.54
2022-09-02T01:08:41.175Z,60.48
2022-09-02T01:11:17.644Z,60.20
2022-09-02T01:13:51.811Z,60.36
2022-09-02T01:16:31.928Z,60.06
2022-09-02T01:19:10.354Z,59.96
2022-09-02T01:21:54.831Z,60.12
2022-09-02T01:24:31.509Z,59.84
2022-09-02T01:27:04.628Z,59.92
2022-09-02T01:29:38.201Z,59.92
2022-09-02T01:32:11.194Z,59.78
2022-09-02T01:34:44.316Z,59.86
2022-09-02T01:37:17.452Z,60.10
2022-09-02T01:39:52.584Z,60.25
2022-09-02T01:42:26.804Z,60.16
2022-09-02T01:45:01.215Z,60.36
2022-09-02T01:47:35.311Z,60.49
2022-09-02T01:50:10.177Z,60.82
2022-09-02T01:52:43.568Z,60.96
2022-09-02T01:55:17.438Z,60.84
2022-09-02T01:57:50.352Z,60.99
2022-09-02T02:00:25.311Z,61.16
2022-09-02T02:02:58.475Z,61.69
2022-09-02T02:05:33.732Z,62.27
2022-09-02T02:08:07.835Z,62.73
2022-09-02T02:10:43.978Z,62.96
2022-09-02T02:13:17.891Z,62.85
2022-09-02T02:15:51.431Z,63.13
2022-09-02T02:18:24.917Z,63.35
2022-09-02T02:20:58.960Z,63.83
2022-09-02T02:23:31.975Z,64.42
2022-09-02T02:26:06.062Z,64.64
2022-09-02T02:28:39.459Z,64.64
2022-09-02T02:31:12.497Z,64.90
2022-09-02T02:33:46.969Z,65.10
2022-09-02T02:36:20.931Z,65.16
2022-09-02T02:38:54.301Z,65.20
2022-09-02T02:41:27.298Z,65.09
2022-09-02T02:44:00.610Z,65.22
2022-09-02T02:46:35.910Z,65.27
2022-09-02T02:49:09.658Z,65.41
2022-09-02T02:51:43.701Z,65.55
2022-09-02T02:54:16.810Z,65.61
2022-09-02T02:56:49.879Z,66.11
2022-09-02T02:59:22.744Z,66.52
2022-09-02T03:01:56.667Z,66.84
2022-09-02T03:04:30.250Z,66.93
2022-09-02T03:07:03.671Z,67.25
2022-09-02T03:09:38.065Z,67.26
2022-09-02T03:12:11.692Z,67.22
2022-09-02T03:14:45.382Z,67.15
2022-09-02T03:17:20.037Z,67.11
2022-09-02T03:19:54.488Z,66.93
2022-09-02T03:22:28.859Z,66.75
2022-09-02T03:25:02.349Z,66.60
2022-09-02T03:27:36.205Z,66.91
2022-09-02T03:30:13.416Z,67.12
2022-09-02T03:32:47.295Z,67.35
2022-09-02T03:35:22.606Z,67.23
2022-09-02T03:37:57.417Z,67.13
2022-09-02T03:40:30.737Z,67.02
2022-09-02T03:43:04.226Z,66.74
2022-09-02T03:45:39.046Z,66.64
2022-09-02T03:48:14.554Z,66.47
2022-09-02T03:50:48.667Z,66.48
2022-09-02T03:53:24.060Z,66.72
2022-09-02T03:55:59.378Z,66.44
2022-09-02T03:58:33.161Z,66.15
2022-09-02T04:01:07.961Z,66.04
2022-09-02T04:03:41.264Z,65.64
2022-09-02T04:06:16.631Z,65.43
2022-09-02T04:08:51.820Z,65.33
2022-09-02T04:11:26.135Z,65.29
2022-09-02T04:14:01.299Z,64.97
2022-09-02T04:16:36.966Z,65.03
2022-09-02T04:19:11.966Z,64.60
2022-09-02T04:21:44.946Z,64.10
2022-09-02T04:24:18.251Z,63.79
2022-09-02T04:26:53.227Z,63.85
2022-09-02T04:29:26.705Z,63.67
2022-09-02T04:32:01.197Z,63.61
2022-09-02T04:34:34.699Z,63.19
2022-09-02T04:37:08.966Z,63.09
2022-09-02T04:39:43.298Z,63.37
2022-09-02T04:42:16.529Z,63.09
2022-09-02T04:44:49.586Z,62.55
2022-09-02T04:47:23.814Z,62.13
2022-09-02T04:49:56.830Z,61.58
2022-09-02T04:52:30.431Z,61.16
2022-09-02T04:55:07.316Z,60.96
2022-09-02T04:57:43.290Z,61.07
2022-09-02T05:00:19.335Z,61.01
2022-09-02T05:02:56.046Z,61.03
2022-09-02T05:05:31.079Z,60.99
2022-09-02T05:08:05.660Z,61.20
2022-09-02T05:10:39.050Z,61.04
2022-09-02T05:13:12.937Z,60.92
2022-09-02T05:15:47.605Z,60.71
2022-09-02T05:18:21.820Z,60.64
2022-09-02T05:20:55.394Z,60.47
2022-09-02T05:23:28.637Z,60.06
2022-09-02T05:26:03.655Z,60.01
2022-09-02T05:28:38.122Z,59.95
2022-09-02T05:31:15.253Z,58.65
2022-09-02T05:33:49.294Z,58.07
2022-09-02T05:36:24.740Z,57.29
2022-09-02T05:39:00.782Z,57.27
2022-09-02T05:41:35.354Z,57.51
2022-09-02T05:44:09.695Z,57.11
2022-09-02T05:46:48.780Z,56.65
2022-09-02T05:49:24.400Z,56.38
2022-09-02T05:52:02.511Z,55.42
2022-09-02T05:54:40.815Z,55.31
2022-09-02T05:57:18.381Z,54.51
2022-09-02T06:00:08.889Z,55.40
2022-09-02T06:02:47.366Z,55.53
2022-09-02T06:05:22.748Z,55.04
2022-09-02T06:07:57.405Z,55.23
2022-09-02T06:10:30.593Z,54.43
2022-09-02T06:13:05.502Z,52.60
2022-09-02T06:15:44.657Z,51.65
2022-09-02T06:18:19.976Z,52.10
2022-09-02T06:20:54.770Z,51.07
2022-09-02T06:23:28.437Z,50.81
2022-09-02T06:26:03.062Z,49.99
2022-09-02T06:28:36.533Z,50.36
2022-09-02T06:31:16.853Z,50.17
2022-09-02T06:33:52.316Z,49.85
2022-09-02T06:36:28.562Z,49.68
2022-09-02T06:39:03.296Z,49.20
2022-09-02T06:41:39.619Z,49.28
2022-09-02T06:44:16.547Z,49.27
2022-09-02T06:46:58.152Z,48.41
2022-09-02T06:49:32.386Z,48.49
2022-09-02T06:52:06.380Z,47.68
2022-09-02T06:54:41.572Z,47.82
2022-09-02T06:57:19.278Z,47.55
2022-09-02T06:59:52.449Z,46.81
2022-09-02T07:02:27.001Z,46.03
2022-09-02T07:05:13.819Z,46.33
2022-09-02T07:07:49.548Z,45.50
2022-09-02T07:10:23.795Z,45.58
2022-09-02T07:12:57.806Z,45.55
2022-09-02T07:15:32.685Z,45.28
2022-09-02T07:18:06.422Z,44.91
2022-09-02T07:20:41.885Z,44.52
2022-09-02T07:23:16.178Z,44.34
2022-09-02T07:25:49.447Z,43.91
2022-09-02T07:28:24.772Z,43.89
2022-09-02T07:30:59.908Z,43.84
2022-09-02T07:33:32.610Z,42.60
2022-09-02T07:36:10.917Z,42.99
2022-09-02T07:38:43.429Z,43.14
2022-09-02T07:41:16.822Z,42.73
2022-09-02T07:43:51.792Z,42.53
2022-09-02T07:46:26.131Z,41.95
2022-09-02T07:49:02.310Z,42.18
2022-09-02T07:51:37.760Z,42.18
2022-09-02T07:54:13.513Z,42.49
2022-09-02T07:56:46.953Z,42.41
2022-09-02T07:59:21.937Z,41.74
2022-09-02T08:01:56.231Z,41.50
2022-09-02T08:04:29.343Z,42.03
2022-09-02T08:07:03.766Z,41.54
2022-09-02T08:09:37.145Z,40.87
2022-09-02T08:12:10.814Z,41.05
2022-09-02T08:14:44.310Z,41.07
2022-09-02T08:17:17.858Z,41.28
2022-09-02T08:19:51.098Z,40.55
2022-09-02T08:22:24.369Z,40.57
2022-09-02T08:24:57.420Z,40.64
2022-09-02T08:27:30.554Z,40.45
2022-09-02T08:30:03.624Z,40.38
2022-09-02T08:32:36.861Z,40.86
2022-09-02T08:35:11.829Z,40.63
2022-09-02T08:37:45.232Z,40.84
2022-09-02T08:40:22.992Z,39.72
2022-09-02T08:42:58.041Z,37.98
2022-09-02T08:45:39.230Z,38.79
2022-09-02T08:48:27.182Z,39.80
2022-09-02T08:51:04.874Z,39.98
2022-09-02T08:53:53.910Z,40.28
2022-09-02T08:56:29.997Z,40.34
2022-09-02T08:59:03.611Z,40.21
2022-09-02T09:02:00.873Z,40.58
2022-09-02T09:05:01.083Z,40.47
2022-09-02T09:07:41.646Z,40.70
2022-09-02T09:10:19.602Z,39.97
2022-09-02T09:13:14.761Z,38.98
2022-09-02T09:16:00.993Z,38.63
2022-09-02T09:18:44.244Z,37.93
2022-09-02T09:21:18.526Z,37.67
2022-09-02T09:23:50.625Z,37.60
2022-09-02T09:26:28.084Z,37.23
2022-09-02T09:29:01.849Z,38.34
2022-09-02T09:31:36.051Z,38.34
2022-09-02T09:34:15.904Z,38.38
2022-09-02T09:36:54.580Z,38.05
2022-09-02T09:39:33.116Z,37.36
2022-09-02T09:42:10.822Z,36.43
2022-09-02T09:44:49.446Z,36.45
2022-09-02T09:47:26.259Z,37.07
2022-09-02T09:50:16.313Z,37.15
2022-09-02T09:52:49.565Z,37.62
2022-09-02T09:55:25.533Z,38.16
2022-09-02T09:58:03.301Z,37.68
2022-09-02T10:00:36.300Z,37.70
2022-09-02T10:03:10.169Z,37.37
2022-09-02T10:05:43.279Z,37.51
2022-09-02T10:08:23.310Z,37.41
2022-09-02T10:11:05.897Z,37.37
2022-09-02T10:13:40.546Z,37.41
2022-09-02T10:16:57.324Z,37.99
2022-09-02T10:19:45.020Z,37.29
2022-09-02T10:22:58.846Z,35.90
2022-09-02T10:25:41.448Z,34.84
2022-09-02T10:28:49.513Z,35.78
2022-09-02T10:31:34.655Z,36.71
2022-09-02T10:34:29.140Z,36.66
2022-09-02T10:37:09.888Z,36.63
2022-09-02T10:40:19.813Z,36.66
2022-09-02T10:43:29.599Z,36.90
2022-09-02T10:46:03.592Z,37.16
2022-09-02T10:49:11.084Z,37.31
2022-09-02T10:54:46.595Z,36.61
2022-09-02T10:57:26.808Z,35.83
2022-09-02T11:00:10.458Z,36.17
2022-09-02T11:03:11.218Z,35.72
2022-09-02T11:05:52.149Z,35.31
2022-09-02T11:08:49.205Z,35.56
2022-09-02T11:11:34.463Z,36.81
2022-09-02T11:14:48.988Z,36.94
2022-09-02T11:17:36.158Z,37.18
2022-09-02T11:20:38.973Z,37.13
2022-09-02T11:23:45.601Z,36.86
2022-09-02T11:26:38.662Z,36.42
2022-09-02T11:29:19.657Z,35.68
2022-09-02T11:32:05.640Z,35.63
2022-09-02T11:34:46.058Z,35.98
2022-09-02T11:37:35.533Z,34.98
2022-09-02T11:41:32.576Z,34.79
2022-09-02T11:44:06.753Z,34.52
2022-09-02T11:47:02.875Z,35.04
2022-09-02T11:50:12.709Z,35.80
2022-09-02T11:53:23.459Z,36.37
2022-09-02T11:56:06.979Z,35.67
2022-09-02T11:58:46.366Z,35.43
2022-09-02T12:01:43.648Z,35.57
2022-09-02T12:04:58.804Z,35.24
2022-09-02T12:07:13.304Z,35.58
2022-09-02T12:09:57.663Z,35.60
2022-09-02T12:12:47.799Z,34.83
2022-09-02T12:15:21.718Z,34.60
2022-09-02T12:18:00.746Z,35.22
2022-09-02T12:20:45.971Z,35.07
2022-09-02T12:23:58.833Z,34.81
2022-09-02T12:26:42.241Z,35.16
2022-09-02T12:29:25.559Z,34.98
2022-09-02T12:31:59.376Z,34.29
2022-09-02T12:34:35.028Z,33.97
2022-09-02T12:37:08.156Z,33.38
2022-09-02T12:39:44.331Z,33.88
2022-09-02T12:42:21.885Z,33.56
2022-09-02T12:45:14.711Z,33.72
2022-09-02T12:48:14.209Z,33.71
2022-09-02T12:50:59.267Z,34.06
2022-09-02T12:53:45.019Z,34.19
2022-09-02T12:56:25.773Z,33.96
2022-09-02T12:59:02.722Z,33.92
2022-09-02T13:02:12.391Z,33.89
2022-09-02T13:05:05.206Z,34.35
2022-09-02T13:08:17.566Z,33.92
2022-09-02T13:10:59.416Z,33.96
2022-09-02T13:14:20.799Z,34.30
2022-09-02T13:17:19.122Z,33.71
2022-09-02T13:20:04.654Z,33.75
2022-09-02T13:22:57.810Z,33.59
2022-09-02T13:26:05.467Z,33.50
2022-09-02T13:29:10.096Z,33.93
2022-09-02T13:31:44.126Z,33.69
2022-09-02T13:34:17.450Z,34.01
2022-09-02T13:36:50.539Z,33.92
2022-09-02T13:39:29.265Z,33.10
2022-09-02T13:42:02.549Z,32.99
2022-09-02T13:44:36.365Z,32.98
2022-09-02T13:47:20.775Z,33.07
2022-09-02T13:49:55.569Z,33.61
2022-09-02T13:53:17.641Z,33.37
2022-09-02T13:55:04.790Z,33.09
2022-09-02T13:57:38.619Z,33.63
2022-09-02T14:00:16.217Z,33.37
2022-09-02T14:03:05.885Z,33.55
2022-09-02T14:05:45.341Z,33.54
2022-09-02T14:08:27.155Z,33.52
2022-09-02T14:11:05.504Z,33.77
2022-09-02T14:13:38.711Z,33.98
2022-09-02T14:16:34.873Z,34.38
2022-09-02T14:19:25.161Z,34.44
2022-09-02T14:21:59.616Z,34.02
2022-09-02T14:24:41.146Z,34.47
2022-09-02T14:27:20.580Z,34.38
2022-09-02T14:30:00.873Z,34.50
2022-09-02T14:32:36.280Z,34.51
2022-09-02T14:35:19.946Z,34.35
2022-09-02T14:37:57.946Z,34.57
2022-09-02T14:40:39.520Z,34.43
2022-09-02T14:43:15.734Z,34.54
2022-09-02T14:45:50.620Z,34.42
2022-09-02T14:48:27.382Z,34.61
2022-09-02T14:51:05.784Z,34.44
2022-09-02T14:53:40.301Z,34.79
2022-09-02T14:56:13.900Z,35.25
2022-09-02T14:58:46.935Z,34.79
2022-09-02T15:01:20.001Z,35.10
2022-09-02T15:03:53.158Z,34.96
2022-09-02T15:06:27.278Z,35.03
2022-09-02T15:09:00.408Z,35.45
2022-09-02T15:11:34.255Z,35.59
2022-09-02T15:14:07.910Z,36.19
2022-09-02T15:16:42.148Z,36.08
2022-09-02T15:19:15.254Z,35.97
2022-09-02T15:21:48.278Z,35.81
2022-09-02T15:24:21.330Z,36.25
2022-09-02T15:26:54.480Z,36.71
2022-09-02T15:29:29.090Z,36.76
2022-09-02T15:32:04.263Z,36.93
2022-09-02T15:34:38.003Z,37.21
2022-09-02T15:37:13.233Z,37.48
2022-09-02T15:39:46.911Z,37.69
2022-09-02T15:42:19.960Z,37.76
2022-09-02T15:44:53.973Z,37.41
2022-09-02T15:47:29.824Z,37.68
2022-09-02T15:50:03.478Z,37.91
2022-09-02T15:52:37.564Z,38.39
2022-09-02T15:55:10.852Z,38.54
2022-09-02T15:57:44.263Z,38.62
2022-09-02T16:00:17.400Z,39.11
2022-09-02T16:02:50.567Z,39.33
2022-09-02T16:05:24.519Z,39.52
2022-09-02T16:07:57.753Z,39.77
2022-09-02T16:10:30.652Z,39.98
2022-09-02T16:13:03.658Z,40.08
2022-09-02T16:15:38.959Z,40.20
2022-09-02T16:18:12.801Z,40.23
2022-09-02T16:20:45.906Z,40.39
2022-09-02T16:23:19.464Z,40.52
2022-09-02T16:26:08.956Z,40.53
2022-09-02T16:28:47.289Z,40.61
2022-09-02T16:31:22.273Z,40.71
2022-09-02T16:34:08.649Z,41.01
2022-09-02T16:36:46.477Z,41.32
2022-09-02T16:39:20.990Z,41.63
2022-09-02T16:41:54.953Z,41.88
2022-09-02T16:44:29.247Z,41.99
2022-09-02T16:47:02.599Z,42.16
2022-09-02T16:49:36.293Z,42.11
2022-09-02T16:52:09.092Z,42.46
2022-09-02T16:54:43.734Z,42.59
2022-09-02T16:57:17.624Z,42.73
2022-09-02T16:59:52.711Z,42.97
2022-09-02T17:02:25.724Z,43.07
2022-09-02T17:04:58.884Z,43.18
2022-09-02T17:07:32.213Z,43.02
2022-09-02T17:10:06.246Z,43.41
2022-09-02T17:12:43.016Z,43.67
2022-09-02T17:15:14.934Z,44.11
2022-09-02T17:17:47.800Z,44.37
2022-09-02T17:20:21.145Z,44.52
2022-09-02T17:22:54.484Z,44.79
2022-09-02T17:25:27.501Z,44.72
2022-09-02T17:28:00.685Z,44.45
2022-09-02T17:30:33.764Z,44.47
2022-09-02T17:33:06.867Z,44.81
2022-09-02T17:35:41.570Z,44.22
2022-09-02T17:38:13.481Z,44.45
2022-09-02T17:41:04.848Z,44.48
2022-09-02T17:43:38.923Z,44.36
2022-09-02T17:46:12.082Z,43.96
2022-09-02T17:49:05.771Z,44.08
2022-09-02T17:51:19.714Z,43.87
2022-09-02T17:53:53.419Z,43.52
2022-09-02T17:56:58.179Z,43.42
2022-09-02T18:00:01.565Z,42.71
2022-09-02T18:02:56.700Z,42.18
2022-09-02T18:05:55.217Z,41.59
2022-09-02T18:08:39.679Z,41.31
2022-09-02T18:11:13.742Z,40.94
2022-09-02T18:13:57.198Z,40.97
2022-09-02T18:16:59.321Z,40.49
2022-09-02T18:20:00.695Z,40.43
2022-09-02T18:23:03.572Z,40.91
2022-09-02T18:26:07.323Z,40.97
2022-09-02T18:28:59.071Z,40.87
2022-09-02T18:31:52.256Z,40.69
2022-09-02T18:34:46.162Z,40.23
2022-09-02T18:37:52.504Z,40.52
2022-09-02T18:40:32.786Z,40.21
2022-09-02T18:43:44.485Z,40.16
2022-09-02T18:46:18.893Z,39.68
2022-09-02T18:48:54.237Z,39.57
2022-09-02T18:51:35.905Z,39.70
2022-09-02T18:54:31.471Z,39.62
2022-09-02T18:57:08.056Z,40.26
2022-09-02T18:59:57.891Z,40.80
2022-09-02T19:03:02.661Z,40.64
2022-09-02T19:05:36.819Z,39.70
2022-09-02T19:08:34.474Z,39.62
2022-09-02T19:11:13.502Z,39.29
2022-09-02T19:13:55.934Z,39.30
2022-09-02T19:16:39.887Z,39.22
2022-09-02T19:19:14.440Z,39.24
2022-09-02T19:21:59.133Z,39.24
2022-09-02T19:24:39.679Z,39.12
2022-09-02T19:27:18.785Z,38.98
2022-09-02T19:29:57.380Z,39.54
2022-09-02T19:32:33.304Z,40.03
2022-09-02T19:35:13.903Z,40.07
2022-09-02T19:37:51.276Z,40.28
2022-09-02T19:40:37.085Z,40.40
2022-09-02T19:43:11.772Z,40.66
2022-09-02T19:45:48.112Z,40.99
2022-09-02T19:48:21.457Z,41.26
2022-09-02T19:50:55.564Z,41.02
2022-09-02T19:53:31.456Z,40.56
2022-09-02T19:56:06.586Z,39.95
2022-09-02T19:58:40.305Z,40.06
2022-09-02T20:01:13.428Z,40.09
2022-09-02T20:03:46.762Z,39.98
2022-09-02T20:06:19.759Z,40.17
2022-09-02T20:08:53.639Z,40.61
2022-09-02T20:11:27.030Z,40.80
2022-09-02T20:13:59.853Z,41.08
2022-09-02T20:16:33.512Z,41.01
2022-09-02T20:19:06.519Z,41.15
2022-09-02T20:21:46.747Z,41.20
2022-09-02T20:24:29.463Z,41.28
2022-09-02T20:27:29.483Z,41.44
2022-09-02T20:30:14.605Z,41.41
2022-09-02T20:33:03.335Z,41.17
2022-09-02T20:36:22.403Z,41.24
2022-09-02T20:39:04.100Z,41.44
2022-09-02T20:42:06.061Z,41.39
2022-09-02T20:45:02.705Z,41.44
2022-09-02T20:47:59.341Z,41.34
2022-09-02T20:50:52.188Z,41.41
2022-09-02T20:53:35.435Z,41.43
2022-09-02T20:56:28.208Z,41.13
2022-09-02T20:59:29.089Z,41.15
2022-09-02T21:02:03.323Z,41.55
2022-09-02T21:04:44.968Z,41.95
2022-09-02T21:07:32.052Z,42.25
2022-09-02T21:10:29.696Z,42.39
2022-09-02T21:13:10.271Z,42.71
2022-09-02T21:15:50.573Z,43.02
2022-09-02T21:18:37.249Z,43.29
2022-09-02T21:21:38.561Z,43.34
2022-09-02T21:24:25.316Z,43.42
2022-09-02T21:27:20.192Z,43.55
2022-09-02T21:30:09.138Z,43.74
2022-09-02T21:32:48.496Z,43.84
2022-09-02T21:35:34.898Z,43.83
2022-09-02T21:38:24.741Z,44.02
2022-09-02T21:41:33.738Z,43.93
2022-09-02T21:44:39.831Z,43.94
2022-09-02T21:47:42.133Z,44.21
2022-09-02T21:50:29.145Z,44.44
2022-09-02T21:53:19.438Z,44.43
2022-09-02T21:56:06.250Z,44.68
2022-09-02T21:59:06.572Z,45.02
2022-09-02T22:02:00.470Z,45.04
2022-09-02T22:04:54.837Z,44.92
2022-09-02T22:07:54.613Z,45.04
2022-09-02T22:10:43.716Z,45.23
2022-09-02T22:13:16.813Z,45.41
2022-09-02T22:16:30.553Z,45.47
2022-09-02T22:19:10.053Z,45.46
2022-09-02T22:22:00.435Z,45.65
2022-09-02T22:24:35.085Z,45.84
2022-09-02T22:27:28.821Z,45.74
2022-09-02T22:30:16.207Z,45.91
2022-09-02T22:33:01.246Z,46.07
2022-09-02T22:35:55.505Z,46.21
2022-09-02T22:38:47.408Z,46.32
2022-09-02T22:41:43.157Z,46.62
2022-09-02T22:44:30.473Z,46.97
2022-09-02T22:47:25.549Z,47.12
2022-09-02T22:50:18.549Z,47.29
2022-09-02T22:52:58.154Z,47.62
2022-09-02T22:55:47.106Z,47.87
2022-09-02T22:59:15.548Z,48.06
2022-09-02T23:01:56.251Z,48.41
2022-09-02T23:04:51.404Z,48.61
2022-09-02T23:07:26.161Z,48.69
2022-09-02T23:10:03.576Z,48.84
2022-09-02T23:12:44.010Z,48.96
2022-09-02T23:15:30.281Z,48.95
2022-09-02T23:18:14.290Z,48.85
2022-09-02T23:21:00.669Z,49.00
2022-09-02T23:24:00.900Z,49.13
2022-09-02T23:26:58.483Z,49.29
2022-09-02T23:29:33.362Z,49.30
2022-09-02T23:32:28.598Z,49.27
2022-09-02T23:35:27.116Z,49.18
2022-09-02T23:38:19.830Z,49.17
2022-09-02T23:41:11.978Z,49.14
2022-09-02T23:43:45.585Z,49.11
2022-09-02T23:46:51.917Z,49.18
2022-09-02T23:49:38.376Z,49.36
2022-09-02T23:52:27.434Z,49.42
2022-09-02T23:55:28.867Z,49.62
2022-09-02T23:58:33.903Z,49.64
